createdAt,value
2022-10-11T00:01:04.434Z,3.40
2022-10-11T00:03:37.119Z,4.20
2022-10-11T00:06:06.849Z,3.60
2022-10-11T00:08:35.908Z,3.50
2022-10-11T00:11:08.316Z,3.70
2022-10-11T00:13:36.647Z,3.60
2022-10-11T00:16:11.558Z,3.60
2022-10-11T00:18:40.183Z,3.60
2022-10-11T00:21:13.208Z,4.10
2022-10-11T00:23:42.701Z,4.30
2022-10-11T00:28:40.562Z,3.50
2022-10-11T00:31:13.502Z,3.90
2022-10-11T00:33:45.920Z,4.00
2022-10-11T00:36:17.045Z,4.00
2022-10-11T00:38:46.296Z,3.90
2022-10-11T00:41:15.328Z,4.40
2022-10-11T00:43:44.538Z,4.30
2022-10-11T00:46:18.857Z,4.10
2022-10-11T00:48:54.188Z,4.70
2022-10-11T00:51:51.405Z,5.20
2022-10-11T00:54:27.315Z,5.50
2022-10-11T00:57:04.400Z,6.50
2022-10-11T00:59:40.645Z,6.10
2022-10-11T01:02:10.355Z,6.50
2022-10-11T01:04:40.373Z,6.50
2022-10-11T01:07:10.366Z,6.30
2022-10-11T01:09:39.133Z,5.30
2022-10-11T01:12:20.082Z,6.80
2022-10-11T01:15:18.837Z,6.40
2022-10-11T01:17:54.709Z,7.90
2022-10-11T01:20:30.853Z,7.90
2022-10-11T01:23:35.397Z,7.50
2022-10-11T01:26:19.946Z,8.00
2022-10-11T01:28:57.329Z,7.20
2022-10-11T01:31:36.986Z,8.00
2022-10-11T01:34:47.247Z,8.00
2022-10-11T01:37:36.293Z,8.40
2022-10-11T01:40:44.727Z,9.00
2022-10-11T01:43:17.309Z,8.20
2022-10-11T01:45:51.045Z,9.80
2022-10-11T01:48:19.475Z,10.70
2022-10-11T01:50:53.482Z,12.20
2022-10-11T01:53:52.867Z,13.10
2022-10-11T01:56:42.274Z,12.50
2022-10-11T01:59:28.878Z,11.90
2022-10-11T02:02:23.964Z,10.70
2022-10-11T02:05:19.277Z,9.90
2022-10-11T02:07:59.635Z,9.20
2022-10-11T02:10:43.046Z,8.90
2022-10-11T02:13:26.196Z,9.40
2022-10-11T02:15:58.669Z,11.40
2022-10-11T02:18:33.471Z,14.10
2022-10-11T02:21:06.277Z,14.20
2022-10-11T02:23:42.950Z,14.70
2022-10-11T02:26:13.292Z,12.70
2022-10-11T02:28:45.073Z,12.00
2022-10-11T02:31:16.585Z,12.20
2022-10-11T02:34:07.916Z,12.30
2022-10-11T02:37:09.679Z,9.90
2022-10-11T02:39:54.110Z,10.20
2022-10-11T02:42:33.037Z,10.10
2022-10-11T02:45:14.197Z,9.20
2022-10-11T02:47:43.720Z,9.50
2022-10-11T02:52:41.220Z,8.80
2022-10-11T02:55:10.944Z,10.40
2022-10-11T02:57:39.204Z,10.90
2022-10-11T03:00:09.213Z,12.00
2022-10-11T03:02:37.698Z,12.40
2022-10-11T03:05:06.472Z,13.60
2022-10-11T03:07:34.845Z,14.50
2022-10-11T03:10:04.231Z,16.00
2022-10-11T03:12:32.907Z,16.50
2022-10-11T03:15:01.518Z,16.80
2022-10-11T03:17:37.564Z,16.40
2022-10-11T03:20:07.517Z,14.80
2022-10-11T03:22:35.842Z,14.30
2022-10-11T03:25:05.240Z,13.50
2022-10-11T03:27:34.149Z,12.70
2022-10-11T03:30:02.945Z,11.60
2022-10-11T03:32:31.330Z,9.70
2022-10-11T03:34:59.723Z,9.60
2022-10-11T03:37:28.185Z,9.50
2022-10-11T03:39:56.685Z,9.50
2022-10-11T03:42:25.067Z,10.60
2022-10-11T03:44:53.524Z,9.20
2022-10-11T03:47:21.812Z,9.20
2022-10-11T03:49:50.198Z,8.90
2022-10-11T03:52:19.293Z,7.90
2022-10-11T03:54:47.575Z,7.50
2022-10-11T03:57:16.050Z,7.80
2022-10-11T03:59:44.304Z,7.40
2022-10-11T04:02:12.578Z,7.00
2022-10-11T04:04:40.982Z,7.60
2022-10-11T04:07:09.469Z,6.50
2022-10-11T04:09:38.201Z,5.70
2022-10-11T04:12:06.628Z,4.80
2022-10-11T04:14:34.917Z,5.50
2022-10-11T04:17:03.278Z,4.50
2022-10-11T04:19:31.529Z,5.50
2022-10-11T04:21:59.910Z,4.40
2022-10-11T04:24:28.256Z,5.10
2022-10-11T04:26:56.796Z,4.40
2022-10-11T04:29:28.868Z,4.50
2022-10-11T04:32:00.593Z,4.80
2022-10-11T04:34:28.973Z,5.00
2022-10-11T04:36:57.421Z,6.30
2022-10-11T04:39:25.726Z,5.00
2022-10-11T04:41:54.006Z,4.60
2022-10-11T04:44:22.291Z,4.60
2022-10-11T04:46:50.599Z,5.20
2022-10-11T04:49:18.961Z,5.30
2022-10-11T04:51:47.246Z,5.40
2022-10-11T04:54:15.967Z,5.90
2022-10-11T04:56:44.498Z,6.60
2022-10-11T04:59:12.769Z,7.00
2022-10-11T05:01:43.344Z,7.30
2022-10-11T05:04:11.885Z,6.80
2022-10-11T05:06:40.209Z,6.30
2022-10-11T05:09:08.623Z,7.10
2022-10-11T05:11:37.013Z,7.10
2022-10-11T05:14:05.490Z,6.50
2022-10-11T05:16:33.929Z,7.40
2022-10-11T05:19:02.501Z,7.90
2022-10-11T05:21:33.227Z,8.00
2022-10-11T05:24:01.574Z,7.40
2022-10-11T05:26:29.944Z,7.30
2022-10-11T05:28:58.228Z,8.00
2022-10-11T05:31:26.774Z,7.80
2022-10-11T05:33:55.322Z,7.70
2022-10-11T05:36:23.899Z,8.10
2022-10-11T05:38:52.996Z,7.60
2022-10-11T05:41:21.749Z,7.60
2022-10-11T05:43:50.157Z,7.70
2022-10-11T05:46:18.569Z,7.70
2022-10-11T05:48:55.209Z,6.70
2022-10-11T05:51:24.382Z,6.70
2022-10-11T05:53:52.978Z,7.40
2022-10-11T05:56:24.691Z,8.00
2022-10-11T05:58:57.506Z,7.60
2022-10-11T06:01:28.779Z,7.30
2022-10-11T06:03:57.451Z,7.40
2022-10-11T06:06:26.190Z,6.60
2022-10-11T06:08:56.198Z,5.80
2022-10-11T06:11:27.503Z,5.90
2022-10-11T06:14:00.647Z,6.00
2022-10-11T06:16:29.125Z,5.10
2022-10-11T06:18:58.111Z,5.60
2022-10-11T06:21:26.758Z,5.20
2022-10-11T06:24:00.790Z,5.40
2022-10-11T06:26:30.456Z,5.60
2022-10-11T06:28:59.123Z,5.10
2022-10-11T06:31:27.699Z,5.50
2022-10-11T06:33:56.249Z,5.60
2022-10-11T06:36:25.289Z,5.10
2022-10-11T06:38:55.438Z,5.70
2022-10-11T06:41:27.262Z,5.40
2022-10-11T06:43:57.129Z,6.10
2022-10-11T06:46:28.016Z,5.60
2022-10-11T06:48:56.746Z,4.90
2022-10-11T06:51:25.993Z,5.60
2022-10-11T06:53:57.963Z,4.70
2022-10-11T06:56:28.919Z,4.60
2022-10-11T06:58:59.812Z,5.20
2022-10-11T07:01:28.410Z,5.50
2022-10-11T07:03:58.481Z,5.20
2022-10-11T07:06:29.463Z,5.10
2022-10-11T07:09:00.989Z,4.70
2022-10-11T07:11:29.621Z,5.90
2022-10-11T07:14:14.665Z,4.90
2022-10-11T07:16:43.189Z,4.40
2022-10-11T07:19:11.757Z,4.70
2022-10-11T07:21:40.181Z,5.10
2022-10-11T07:24:08.920Z,5.00
2022-10-11T07:26:38.707Z,5.20
2022-10-11T07:29:09.325Z,5.20
2022-10-11T07:31:40.293Z,5.70
2022-10-11T07:34:09.606Z,6.00
2022-10-11T07:36:39.099Z,6.20
2022-10-11T07:39:09.141Z,6.10
2022-10-11T07:41:44.580Z,5.30
2022-10-11T07:44:15.158Z,5.90
2022-10-11T07:46:43.493Z,5.30
2022-10-11T07:49:11.884Z,6.30
2022-10-11T07:51:45.289Z,6.30
2022-10-11T07:54:14.752Z,6.90
2022-10-11T07:56:43.121Z,6.00
2022-10-11T07:59:13.618Z,4.90
2022-10-11T08:01:42.095Z,6.30
2022-10-11T08:04:15.637Z,6.10
2022-10-11T08:06:44.462Z,5.00
2022-10-11T08:09:16.555Z,5.30
2022-10-11T08:11:44.939Z,5.70
2022-10-11T08:14:13.652Z,5.40
2022-10-11T08:16:42.034Z,4.80
2022-10-11T08:19:11.250Z,5.00
2022-10-11T08:21:39.765Z,4.80
2022-10-11T08:24:08.617Z,4.80
2022-10-11T08:26:37.134Z,4.90
2022-10-11T08:29:06.061Z,4.40
2022-10-11T08:31:35.738Z,3.70
2022-10-11T08:34:04.166Z,4.00
2022-10-11T08:36:33.259Z,4.50
2022-10-11T08:39:01.885Z,4.20
2022-10-11T08:41:42.371Z,3.70
2022-10-11T08:44:52.147Z,3.30
2022-10-11T08:47:48.214Z,3.30
2022-10-11T08:50:23.468Z,4.20
2022-10-11T08:52:59.726Z,5.50
2022-10-11T08:55:51.098Z,3.50
2022-10-11T08:58:24.489Z,3.50
2022-10-11T09:00:56.744Z,3.60
2022-10-11T09:03:39.306Z,3.70
2022-10-11T09:06:53.157Z,3.80
2022-10-11T09:09:44.707Z,3.80
2022-10-11T09:12:31.937Z,4.60
2022-10-11T09:15:24.701Z,3.60
2022-10-11T09:18:41.162Z,5.30
2022-10-11T09:21:47.817Z,4.70
2022-10-11T09:24:18.957Z,3.50
2022-10-11T09:27:14.398Z,3.50
2022-10-11T09:30:04.553Z,4.10
2022-10-11T09:32:39.801Z,3.90
2022-10-11T09:35:18.524Z,3.90
2022-10-11T09:38:01.013Z,4.10
2022-10-11T09:40:48.210Z,4.40
2022-10-11T09:43:16.756Z,4.00
2022-10-11T09:45:49.520Z,4.60
2022-10-11T09:48:27.689Z,4.10
2022-10-11T09:51:06.588Z,4.00
2022-10-11T09:54:01.302Z,4.20
2022-10-11T09:56:33.065Z,4.60
2022-10-11T09:59:36.384Z,4.40
2022-10-11T10:02:14.004Z,3.80
2022-10-11T10:05:06.691Z,3.50
2022-10-11T10:07:38.269Z,3.70
2022-10-11T10:10:36.348Z,3.60
2022-10-11T10:13:16.219Z,3.20
2022-10-11T10:15:49.205Z,3.90
2022-10-11T10:18:27.789Z,3.30
2022-10-11T10:20:59.873Z,3.50
2022-10-11T10:23:35.293Z,3.30
2022-10-11T10:26:24.849Z,3.00
2022-10-11T10:29:18.781Z,4.10
2022-10-11T10:32:12.920Z,3.20
2022-10-11T10:34:54.366Z,3.30
2022-10-11T10:37:32.304Z,2.70
2022-10-11T10:40:10.386Z,2.50
2022-10-11T10:42:38.935Z,2.30
2022-10-11T10:45:20.111Z,2.50
2022-10-11T10:48:24.026Z,2.80
2022-10-11T10:51:01.257Z,3.40
2022-10-11T10:53:39.042Z,2.30
2022-10-11T10:56:27.616Z,2.50
2022-10-11T10:59:39.038Z,2.00
2022-10-11T11:02:40.315Z,2.20
2022-10-11T11:05:44.012Z,2.40
2022-10-11T11:08:57.253Z,2.50
2022-10-11T11:12:16.530Z,2.40
2022-10-11T11:17:26.204Z,1.80
2022-10-11T11:20:29.788Z,2.20
2022-10-11T11:23:03.692Z,2.10
2022-10-11T11:26:00.710Z,2.00
2022-10-11T11:28:40.583Z,2.10
2022-10-11T11:31:23.943Z,1.80
2022-10-11T11:34:38.731Z,2.30
2022-10-11T11:37:14.899Z,2.20
2022-10-11T11:39:54.606Z,2.10
2022-10-11T11:43:01.439Z,2.20
2022-10-11T11:45:46.701Z,1.90
2022-10-11T11:48:34.064Z,2.10
2022-10-11T11:51:11.711Z,2.00
2022-10-11T11:54:08.539Z,2.20
2022-10-11T11:57:02.876Z,2.00
2022-10-11T11:59:36.936Z,2.00
2022-10-11T12:02:53.200Z,2.20
2022-10-11T12:05:29.813Z,2.50
2022-10-11T12:08:04.395Z,1.40
2022-10-11T12:10:55.944Z,2.10
2022-10-11T12:13:37.677Z,2.50
2022-10-11T12:16:15.542Z,2.00
2022-10-11T12:19:14.545Z,2.10
2022-10-11T12:21:44.963Z,2.20
2022-10-11T12:24:19.680Z,2.50
2022-10-11T12:26:56.470Z,2.10
2022-10-11T12:29:48.237Z,2.40
2022-10-11T12:32:29.210Z,2.20
2022-10-11T12:35:37.995Z,2.60
2022-10-11T12:38:19.542Z,2.50
2022-10-11T12:40:50.850Z,2.20
2022-10-11T12:43:19.078Z,3.20
2022-10-11T12:45:48.397Z,2.50
2022-10-11T12:48:46.530Z,3.10
2022-10-11T12:51:50.193Z,2.40
2022-10-11T12:55:03.552Z,4.50
2022-10-11T12:57:50.670Z,2.80
2022-10-11T13:00:53.094Z,3.50
2022-10-11T13:03:32.839Z,3.50
2022-10-11T13:06:25.180Z,3.40
2022-10-11T13:09:14.350Z,3.50
2022-10-11T13:14:26.712Z,2.80
2022-10-11T13:17:16.181Z,3.20
2022-10-11T13:19:44.480Z,3.10
2022-10-11T13:22:23.328Z,3.50
2022-10-11T13:24:57.004Z,3.40
2022-10-11T13:27:27.876Z,2.80
2022-10-11T13:30:01.092Z,3.50
2022-10-11T13:32:32.121Z,3.50
2022-10-11T13:35:13.726Z,3.50
2022-10-11T13:37:46.542Z,3.50
2022-10-11T13:40:18.377Z,3.20
2022-10-11T13:42:48.771Z,3.10
2022-10-11T13:45:26.277Z,3.50
2022-10-11T13:47:55.479Z,3.20
2022-10-11T13:53:09.615Z,3.20
2022-10-11T13:56:00.072Z,3.40
2022-10-11T13:58:45.045Z,2.80
2022-10-11T14:01:24.936Z,3.10
2022-10-11T14:04:02.901Z,2.90
2022-10-11T14:07:03.480Z,2.90
2022-10-11T14:09:38.834Z,2.70
2022-10-11T14:12:32.306Z,2.50
2022-10-11T14:15:02.570Z,2.50
2022-10-11T14:17:45.747Z,2.30
2022-10-11T14:20:23.631Z,2.80
2022-10-11T14:22:53.436Z,2.30
2022-10-11T14:25:22.202Z,2.80
2022-10-11T14:27:50.746Z,2.90
2022-10-11T14:30:27.116Z,2.80
2022-10-11T14:33:01.239Z,2.30
2022-10-11T14:35:32.432Z,2.80
2022-10-11T14:38:01.130Z,2.90
2022-10-11T14:40:31.985Z,2.90
2022-10-11T14:43:00.241Z,2.40
2022-10-11T14:45:29.400Z,2.50
2022-10-11T14:47:57.938Z,2.50
2022-10-11T14:50:42.823Z,2.90
2022-10-11T14:53:12.196Z,2.60
2022-10-11T14:58:13.769Z,2.50
2022-10-11T15:00:42.091Z,2.80
2022-10-11T15:03:10.552Z,2.50
2022-10-11T15:05:39.350Z,2.50
2022-10-11T15:08:07.887Z,2.90
2022-10-11T15:10:41.045Z,2.60
2022-10-11T15:13:09.948Z,2.90
2022-10-11T15:15:41.574Z,2.80
2022-10-11T15:18:13.652Z,2.50
2022-10-11T15:20:45.738Z,3.00
2022-10-11T15:23:14.598Z,2.60
2022-10-11T15:25:43.151Z,2.60
2022-10-11T15:28:28.878Z,2.30
2022-10-11T15:30:58.273Z,2.50
2022-10-11T15:33:26.986Z,2.70
2022-10-11T15:35:55.289Z,2.50
2022-10-11T15:38:25.860Z,2.50
2022-10-11T15:40:54.744Z,2.30
2022-10-11T15:43:24.997Z,2.40
2022-10-11T15:45:55.237Z,2.80
2022-10-11T15:50:55.064Z,2.50
2022-10-11T15:53:31.346Z,3.20
2022-10-11T15:56:05.648Z,2.60
2022-10-11T15:58:40.376Z,2.20
2022-10-11T16:01:20.180Z,2.60
2022-10-11T16:03:50.761Z,2.50
2022-10-11T16:06:19.522Z,2.50
2022-10-11T16:08:48.192Z,2.60
2022-10-11T16:11:16.493Z,2.40
2022-10-11T16:13:45.374Z,2.60
2022-10-11T16:16:13.748Z,2.50
2022-10-11T16:18:42.043Z,2.80
2022-10-11T16:21:14.517Z,2.80
2022-10-11T16:23:43.237Z,3.10
2022-10-11T16:26:14.941Z,2.80
2022-10-11T16:28:43.365Z,3.30
2022-10-11T16:31:18.260Z,3.00
2022-10-11T16:33:47.931Z,3.40
2022-10-11T16:36:40.264Z,2.70
2022-10-11T16:39:18.393Z,3.10
2022-10-11T16:41:47.391Z,3.30
2022-10-11T16:44:22.158Z,3.60
2022-10-11T16:46:51.105Z,2.80
2022-10-11T16:49:23.184Z,3.60
2022-10-11T16:51:53.807Z,3.00
2022-10-11T16:54:22.758Z,3.20
2022-10-11T16:56:51.622Z,3.10
2022-10-11T16:59:20.977Z,3.20
2022-10-11T17:01:49.287Z,3.20
2022-10-11T17:04:17.571Z,3.60
2022-10-11T17:06:46.043Z,3.40
2022-10-11T17:09:16.101Z,3.10
2022-10-11T17:11:44.244Z,3.30
2022-10-11T17:14:14.183Z,3.20
2022-10-11T17:16:43.351Z,2.80
2022-10-11T17:19:14.990Z,3.80
2022-10-11T17:21:43.570Z,5.10
2022-10-11T17:24:11.813Z,5.20
2022-10-11T17:26:40.287Z,5.00
2022-10-11T17:29:17.152Z,4.90
2022-10-11T17:31:49.079Z,4.40
2022-10-11T17:34:18.461Z,4.90
2022-10-11T17:36:47.657Z,4.70
2022-10-11T17:39:21.485Z,4.50
2022-10-11T17:41:50.812Z,3.80
2022-10-11T17:44:19.850Z,3.50
2022-10-11T17:46:49.169Z,3.60
2022-10-11T17:49:17.579Z,4.10
2022-10-11T17:51:45.931Z,3.90
2022-10-11T17:54:14.515Z,4.10
2022-10-11T17:56:42.901Z,4.00
2022-10-11T17:59:28.104Z,4.20
2022-10-11T18:01:56.742Z,3.60
2022-10-11T18:04:27.313Z,3.20
2022-10-11T18:06:56.176Z,3.40
2022-10-11T18:09:24.968Z,3.70
2022-10-11T18:11:53.350Z,3.30
2022-10-11T18:14:21.929Z,3.30
2022-10-11T18:16:50.525Z,3.00
2022-10-11T18:19:18.770Z,3.50
2022-10-11T18:21:47.058Z,3.40
2022-10-11T18:24:16.956Z,3.50
2022-10-11T18:26:46.878Z,3.30
2022-10-11T18:29:16.345Z,3.50
2022-10-11T18:31:44.897Z,3.00
2022-10-11T18:34:13.993Z,3.40
2022-10-11T18:36:42.486Z,3.30
2022-10-11T18:39:14.827Z,2.90
2022-10-11T18:41:44.830Z,3.10
2022-10-11T18:44:15.865Z,3.50
2022-10-11T18:46:45.491Z,3.50
2022-10-11T18:49:14.292Z,3.50
2022-10-11T18:51:45.093Z,3.70
2022-10-11T18:54:16.949Z,3.90
2022-10-11T18:56:49.026Z,3.80
2022-10-11T18:59:17.621Z,3.80
2022-10-11T19:01:46.477Z,4.30
2022-10-11T19:04:18.474Z,4.10
2022-10-11T19:06:48.791Z,4.20
2022-10-11T19:09:24.486Z,4.70
2022-10-11T19:11:55.478Z,3.80
2022-10-11T19:14:30.353Z,4.20
2022-10-11T19:16:58.992Z,4.60
2022-10-11T19:19:29.806Z,4.30
2022-10-11T19:21:58.122Z,4.70
2022-10-11T19:24:29.639Z,4.40
2022-10-11T19:27:02.608Z,4.60
2022-10-11T19:29:31.850Z,4.30
2022-10-11T19:32:03.155Z,4.60
2022-10-11T19:34:32.952Z,4.50
2022-10-11T19:37:01.783Z,3.90
2022-10-11T19:39:30.465Z,4.60
2022-10-11T19:42:00.397Z,4.20
2022-10-11T19:44:29.626Z,4.80
2022-10-11T19:47:02.773Z,4.20
2022-10-11T19:49:33.623Z,5.00
2022-10-11T19:52:02.205Z,4.50
2022-10-11T19:54:32.097Z,4.50
2022-10-11T19:59:29.488Z,3.60
2022-10-11T20:01:57.871Z,4.90
2022-10-11T20:07:14.434Z,4.80
2022-10-11T20:09:42.953Z,4.70
2022-10-11T20:12:11.726Z,4.70
2022-10-11T20:14:40.035Z,4.40
2022-10-11T20:17:08.333Z,4.70
2022-10-11T20:19:36.673Z,4.50
2022-10-11T20:22:05.163Z,5.60
2022-10-11T20:24:34.770Z,5.00
2022-10-11T20:27:06.800Z,4.50
2022-10-11T20:29:35.827Z,4.30
2022-10-11T20:32:04.297Z,4.40
2022-10-11T20:34:32.672Z,4.70
2022-10-11T20:37:01.073Z,4.40
2022-10-11T20:39:29.444Z,5.10
2022-10-11T20:41:58.035Z,4.50
2022-10-11T20:44:26.537Z,4.70
2022-10-11T20:46:55.050Z,4.50
2022-10-11T20:49:23.281Z,4.90
2022-10-11T20:51:51.631Z,4.40
2022-10-11T20:54:20.027Z,4.80
2022-10-11T20:56:48.389Z,4.20
2022-10-11T20:59:16.878Z,4.20
2022-10-11T21:01:46.018Z,4.60
2022-10-11T21:04:19.565Z,4.10
2022-10-11T21:06:49.127Z,4.20
2022-10-11T21:11:46.655Z,4.30
2022-10-11T21:14:15.437Z,4.70
2022-10-11T21:16:44.134Z,5.50
2022-10-11T21:19:16.301Z,4.90
2022-10-11T21:21:52.600Z,4.70
2022-10-11T21:24:21.961Z,5.20
2022-10-11T21:26:50.429Z,4.20
2022-10-11T21:29:19.117Z,5.10
2022-10-11T21:31:47.369Z,5.00
2022-10-11T21:34:15.977Z,4.90
2022-10-11T21:36:44.269Z,5.50
2022-10-11T21:39:12.648Z,5.60
2022-10-11T21:41:42.457Z,5.80
2022-10-11T21:44:10.947Z,5.90
2022-10-11T21:47:05.435Z,5.40
2022-10-11T21:49:28.052Z,5.10
2022-10-11T21:51:56.557Z,5.20
2022-10-11T21:54:24.869Z,5.00
2022-10-11T21:56:53.188Z,5.50
2022-10-11T21:59:21.769Z,4.80
2022-10-11T22:01:50.150Z,4.70
2022-10-11T22:04:18.673Z,5.10
2022-10-11T22:06:47.339Z,5.80
2022-10-11T22:09:16.230Z,5.30
2022-10-11T22:11:44.482Z,5.70
2022-10-11T22:14:12.985Z,5.60
2022-10-11T22:16:41.760Z,5.70
2022-10-11T22:19:10.150Z,7.50
2022-10-11T22:21:43.983Z,6.70
2022-10-11T22:24:13.365Z,7.10
2022-10-11T22:26:41.740Z,5.90
2022-10-11T22:29:10.104Z,7.20
2022-10-11T22:31:38.582Z,7.30
2022-10-11T22:34:06.975Z,7.80
2022-10-11T22:36:35.456Z,7.90
2022-10-11T22:39:08.132Z,7.70
2022-10-11T22:41:37.934Z,7.90
2022-10-11T22:46:34.669Z,6.70
2022-10-11T22:49:03.198Z,7.40
2022-10-11T22:51:31.570Z,6.50
2022-10-11T22:53:59.920Z,7.70
2022-10-11T22:56:28.490Z,7.60
2022-10-11T22:58:58.644Z,7.20
2022-10-11T23:01:27.022Z,8.10
2022-10-11T23:03:55.653Z,7.10
2022-10-11T23:06:24.069Z,8.00
2022-10-11T23:08:52.667Z,7.20
2022-10-11T23:11:21.049Z,7.40
2022-10-11T23:13:49.428Z,7.50
2022-10-11T23:16:17.728Z,7.90
2022-10-11T23:18:46.124Z,7.80
2022-10-11T23:21:14.441Z,8.30
2022-10-11T23:23:42.838Z,7.90
2022-10-11T23:26:15.002Z,7.70
2022-10-11T23:28:44.185Z,8.40
2022-10-11T23:31:19.419Z,8.30
2022-10-11T23:33:48.346Z,9.10
2022-10-11T23:36:21.298Z,9.40
2022-10-11T23:38:55.838Z,12.20
2022-10-11T23:41:28.050Z,12.10
2022-10-11T23:43:57.237Z,11.90
2022-10-11T23:46:25.877Z,9.70
2022-10-11T23:48:54.179Z,10.80
2022-10-11T23:51:22.543Z,10.70
2022-10-11T23:53:50.823Z,11.10
2022-10-11T23:56:19.383Z,10.40
2022-10-11T23:58:47.723Z,9.90
